createdAt,value
2018-07-26T00:04:32.878Z,57.19
2018-07-26T00:09:35.973Z,57.15
2018-07-26T00:14:39.034Z,56.86
2018-07-26T00:19:42.118Z,56.31
2018-07-26T00:24:45.200Z,56.11
2018-07-26T00:29:48.233Z,56.34
2018-07-26T00:34:51.282Z,56.07
2018-07-26T00:39:54.342Z,55.71
2018-07-26T00:44:57.382Z,56.04
2018-07-26T00:50:00.381Z,56.02
2018-07-26T00:55:03.522Z,56.18
2018-07-26T01:00:06.798Z,56.36
2018-07-26T01:05:09.801Z,57.21
2018-07-26T01:10:12.896Z,57.03
2018-07-26T01:15:16.038Z,58.40
2018-07-26T01:20:19.210Z,58.69
2018-07-26T01:25:22.286Z,58.38
2018-07-26T01:30:25.317Z,58.58
2018-07-26T01:35:28.339Z,59.03
2018-07-26T01:40:31.329Z,58.97
2018-07-26T01:45:34.374Z,58.53
2018-07-26T01:50:37.531Z,58.71
2018-07-26T01:55:40.558Z,59.01
2018-07-26T02:00:43.670Z,59.58
2018-07-26T02:05:46.718Z,60.42
2018-07-26T02:10:49.723Z,60.48
2018-07-26T02:15:53.041Z,61.27
2018-07-26T02:20:56.113Z,61.38
2018-07-26T02:25:59.198Z,61.54
2018-07-26T02:31:02.248Z,61.88
2018-07-26T02:36:05.250Z,61.50
2018-07-26T02:41:08.310Z,61.39
2018-07-26T02:46:11.417Z,61.76
2018-07-26T02:51:14.473Z,61.17
2018-07-26T02:56:17.470Z,61.07
2018-07-26T03:01:20.473Z,60.75
2018-07-26T03:06:23.823Z,61.35
2018-07-26T03:11:26.867Z,62.27
2018-07-26T03:16:29.897Z,62.48
2018-07-26T03:21:33.018Z,63.08
2018-07-26T03:26:36.042Z,63.28
2018-07-26T03:31:39.143Z,63.42
2018-07-26T03:36:42.153Z,64.10
2018-07-26T03:41:45.548Z,64.48
2018-07-26T03:46:48.662Z,64.61
2018-07-26T03:51:51.712Z,64.72
2018-07-26T03:56:54.908Z,64.74
2018-07-26T04:01:59.188Z,65.04
2018-07-26T04:07:02.272Z,64.54
2018-07-26T04:12:05.398Z,64.72
2018-07-26T04:17:08.405Z,64.37
2018-07-26T04:22:11.428Z,64.08
2018-07-26T04:27:14.485Z,63.72
2018-07-26T04:32:17.524Z,62.74
2018-07-26T04:37:20.595Z,62.95
2018-07-26T04:42:23.634Z,63.13
2018-07-26T04:47:26.651Z,62.07
2018-07-26T04:52:29.685Z,61.53
2018-07-26T04:57:32.774Z,60.63
2018-07-26T05:02:36.119Z,60.30
2018-07-26T05:07:39.172Z,60.18
2018-07-26T05:12:42.207Z,58.55
2018-07-26T05:17:45.443Z,58.12
2018-07-26T05:22:48.505Z,57.69
2018-07-26T05:27:52.259Z,57.43
2018-07-26T05:32:55.238Z,57.38
2018-07-26T05:37:58.292Z,57.15
2018-07-26T05:43:01.365Z,55.49
2018-07-26T05:48:04.511Z,56.07
2018-07-26T05:53:07.596Z,55.18
2018-07-26T05:58:10.665Z,54.98
2018-07-26T06:03:13.704Z,54.66
2018-07-26T06:08:16.785Z,53.93
2018-07-26T06:13:19.810Z,52.15
2018-07-26T06:18:22.840Z,51.44
2018-07-26T06:23:25.866Z,50.77
2018-07-26T06:28:28.982Z,50.83
2018-07-26T06:33:32.127Z,50.49
2018-07-26T06:38:35.141Z,49.52
2018-07-26T06:43:38.178Z,49.46
2018-07-26T06:48:41.184Z,48.42
2018-07-26T06:53:44.234Z,48.43
2018-07-26T06:58:47.353Z,47.88
2018-07-26T07:03:50.437Z,47.35
2018-07-26T07:08:53.553Z,47.26
2018-07-26T07:13:56.678Z,46.45
2018-07-26T07:18:59.920Z,46.84
2018-07-26T07:24:03.038Z,46.12
2018-07-26T07:29:06.106Z,46.71
2018-07-26T07:34:09.142Z,46.45
2018-07-26T07:39:13.226Z,45.38
2018-07-26T07:44:16.349Z,45.05
2018-07-26T07:49:19.383Z,44.36
2018-07-26T07:54:22.401Z,44.21
2018-07-26T07:59:25.455Z,43.44
2018-07-26T08:04:28.492Z,42.74
2018-07-26T08:09:31.513Z,42.92
2018-07-26T08:14:34.639Z,41.93
2018-07-26T08:19:37.767Z,41.61
2018-07-26T08:24:40.789Z,40.14
2018-07-26T08:29:43.821Z,40.59
2018-07-26T08:34:46.903Z,39.73
2018-07-26T08:39:49.918Z,38.96
2018-07-26T08:44:52.929Z,39.82
2018-07-26T08:49:56.059Z,39.60
2018-07-26T08:54:59.089Z,38.79
2018-07-26T09:00:02.284Z,38.88
2018-07-26T09:05:05.895Z,38.33
2018-07-26T09:10:08.949Z,37.84
2018-07-26T09:15:12.147Z,37.00
2018-07-26T09:20:15.254Z,37.68
2018-07-26T09:25:18.448Z,36.32
2018-07-26T09:30:21.553Z,36.78
2018-07-26T09:35:24.742Z,35.29
2018-07-26T09:40:27.789Z,34.68
2018-07-26T09:45:31.533Z,34.77
2018-07-26T09:50:34.585Z,33.74
2018-07-26T09:55:37.861Z,33.67
2018-07-26T10:00:46.982Z,32.73
2018-07-26T10:05:50.181Z,31.72
2018-07-26T10:10:53.194Z,32.33
2018-07-26T10:15:56.252Z,32.52
2018-07-26T10:20:59.333Z,31.81
2018-07-26T10:26:02.332Z,30.64
2018-07-26T10:31:06.045Z,30.89
2018-07-26T10:36:09.110Z,29.85
2018-07-26T10:41:12.190Z,29.82
2018-07-26T10:46:15.242Z,28.82
2018-07-26T10:51:18.259Z,29.44
2018-07-26T10:56:21.309Z,29.87
2018-07-26T11:01:24.366Z,29.50
2018-07-26T11:06:27.408Z,29.60
2018-07-26T11:11:30.422Z,29.82
2018-07-26T11:16:33.529Z,28.51
2018-07-26T11:21:36.593Z,29.40
2018-07-26T11:26:39.609Z,28.55
2018-07-26T11:31:42.649Z,28.17
2018-07-26T11:36:45.666Z,27.15
2018-07-26T11:41:48.681Z,27.39
2018-07-26T11:46:51.824Z,27.22
2018-07-26T11:51:54.845Z,27.83
2018-07-26T11:56:57.913Z,28.21
2018-07-26T12:02:00.960Z,28.33
2018-07-26T12:07:04.024Z,27.85
2018-07-26T12:12:07.357Z,28.46
2018-07-26T12:17:10.502Z,28.15
2018-07-26T12:22:13.538Z,28.05
2018-07-26T12:27:16.574Z,27.06
2018-07-26T12:32:19.637Z,27.40
2018-07-26T12:37:22.677Z,28.42
2018-07-26T12:42:25.701Z,27.87
2018-07-26T12:47:28.727Z,27.65
2018-07-26T12:52:31.765Z,27.88
2018-07-26T12:57:34.857Z,28.29
2018-07-26T13:02:37.927Z,26.16
2018-07-26T13:07:40.942Z,26.11
2018-07-26T13:12:43.990Z,26.91
2018-07-26T13:17:47.040Z,27.45
2018-07-26T13:22:50.081Z,28.10
2018-07-26T13:27:53.393Z,27.21
2018-07-26T13:32:56.498Z,27.17
2018-07-26T13:37:59.523Z,26.37
2018-07-26T13:43:02.566Z,26.72
2018-07-26T13:48:05.593Z,27.37
2018-07-26T13:53:08.586Z,28.50
2018-07-26T13:58:11.697Z,27.28
2018-07-26T14:03:14.701Z,26.42
2018-07-26T14:08:17.752Z,27.09
2018-07-26T14:13:20.861Z,27.29
2018-07-26T14:18:23.971Z,27.21
2018-07-26T14:23:41.822Z,27.96
2018-07-26T14:28:44.827Z,27.15
2018-07-26T14:33:47.829Z,28.05
2018-07-26T14:38:50.827Z,26.50
2018-07-26T14:43:53.914Z,25.82
2018-07-26T14:48:56.921Z,25.59
2018-07-26T14:54:00.026Z,25.29
2018-07-26T14:59:03.270Z,25.32
2018-07-26T15:04:06.708Z,25.09
2018-07-26T15:09:10.369Z,25.58
2018-07-26T15:14:13.453Z,24.41
2018-07-26T15:19:16.529Z,26.31
2018-07-26T15:24:19.530Z,25.64
2018-07-26T15:29:22.577Z,25.73
2018-07-26T15:34:25.629Z,25.18
2018-07-26T15:39:28.754Z,24.62
2018-07-26T15:44:31.859Z,25.69
2018-07-26T15:49:35.013Z,25.56
2018-07-26T15:54:38.061Z,26.24
2018-07-26T15:59:41.106Z,25.75
2018-07-26T16:04:44.212Z,25.37
2018-07-26T16:09:47.231Z,24.83
2018-07-26T16:14:50.264Z,25.08
2018-07-26T16:19:53.314Z,25.08
2018-07-26T16:24:56.355Z,25.69
2018-07-26T16:29:59.408Z,25.38
2018-07-26T16:35:02.536Z,24.91
2018-07-26T16:40:05.791Z,25.36
2018-07-26T16:45:08.788Z,24.59
2018-07-26T16:50:11.832Z,25.29
2018-07-26T16:55:14.894Z,24.78
2018-07-26T17:00:17.998Z,25.36
2018-07-26T17:05:21.117Z,24.98
2018-07-26T17:10:24.162Z,25.49
2018-07-26T17:15:27.217Z,26.36
2018-07-26T17:20:30.305Z,26.49
2018-07-26T17:25:33.386Z,27.05
2018-07-26T17:30:36.562Z,26.92
2018-07-26T17:35:39.630Z,26.66
2018-07-26T17:40:43.223Z,27.15
2018-07-26T17:45:46.275Z,27.81
2018-07-26T17:50:49.712Z,27.33
2018-07-26T17:55:52.774Z,27.41
2018-07-26T18:00:55.823Z,28.02
2018-07-26T18:05:58.963Z,27.83
2018-07-26T18:11:02.079Z,28.15
2018-07-26T18:16:05.339Z,28.12
2018-07-26T18:21:08.852Z,28.82
2018-07-26T18:26:12.010Z,28.51
2018-07-26T18:31:15.007Z,29.41
2018-07-26T18:36:18.040Z,29.73
2018-07-26T18:41:21.068Z,29.40
2018-07-26T18:46:24.957Z,30.33
2018-07-26T18:51:28.053Z,30.09
2018-07-26T18:56:31.113Z,30.35
2018-07-26T19:01:34.242Z,31.11
2018-07-26T19:06:37.316Z,30.91
2018-07-26T19:11:41.119Z,31.53
2018-07-26T19:16:44.145Z,31.73
2018-07-26T19:21:47.184Z,31.99
2018-07-26T19:26:50.195Z,32.62
2018-07-26T19:31:53.262Z,32.54
2018-07-26T19:36:56.497Z,32.98
2018-07-26T19:41:59.501Z,33.50
2018-07-26T19:47:02.545Z,34.39
2018-07-26T19:52:05.647Z,34.15
2018-07-26T19:57:08.752Z,35.17
2018-07-26T20:02:11.794Z,34.82
2018-07-26T20:07:14.876Z,35.62
2018-07-26T20:12:17.994Z,35.98
2018-07-26T20:17:21.083Z,35.90
2018-07-26T20:22:24.152Z,36.40
2018-07-26T20:27:27.232Z,37.44
2018-07-26T20:32:30.314Z,38.08
2018-07-26T20:37:33.514Z,38.44
2018-07-26T20:42:37.773Z,38.99
2018-07-26T20:47:40.955Z,39.86
2018-07-26T20:52:44.113Z,39.22
2018-07-26T20:57:47.126Z,39.46
2018-07-26T21:02:50.258Z,39.60
2018-07-26T21:07:53.295Z,39.41
2018-07-26T21:12:56.309Z,40.25
2018-07-26T21:17:59.346Z,39.81
2018-07-26T21:23:02.443Z,40.03
2018-07-26T21:28:05.539Z,40.27
2018-07-26T21:33:08.638Z,41.12
2018-07-26T21:38:11.769Z,41.25
2018-07-26T21:43:15.287Z,41.57
2018-07-26T21:48:18.384Z,41.73
2018-07-26T21:53:21.462Z,41.78
2018-07-26T21:58:24.497Z,42.59
2018-07-26T22:03:28.910Z,42.41
2018-07-26T22:08:31.976Z,42.97
2018-07-26T22:13:35.065Z,42.64
2018-07-26T22:18:38.078Z,43.55
2018-07-26T22:23:41.137Z,43.41
2018-07-26T22:28:44.518Z,43.21
2018-07-26T22:33:47.583Z,43.83
2018-07-26T22:38:50.577Z,44.05
2018-07-26T22:43:53.601Z,43.79
2018-07-26T22:48:56.603Z,44.16
2018-07-26T22:53:59.801Z,44.59
2018-07-26T22:59:03.003Z,44.85
2018-07-26T23:04:06.053Z,44.36
2018-07-26T23:09:10.234Z,44.44
2018-07-26T23:14:13.330Z,44.64
2018-07-26T23:19:16.374Z,44.67
2018-07-26T23:24:19.557Z,45.33
2018-07-26T23:29:22.672Z,44.83
2018-07-26T23:34:25.731Z,44.94
2018-07-26T23:39:28.820Z,45.61
2018-07-26T23:44:31.882Z,45.00
2018-07-26T23:49:35.075Z,45.66
2018-07-26T23:54:38.081Z,46.03
2018-07-26T23:59:41.244Z,46.52
